C Tractor 11 — WCO3211 — position and weather

sailwx.info

Track history (hours):
 
Tides and Currents Weather Stations Pressure Air Temp Water Temp Dewpoint Dewpoint Depression Visibility Wind Speed Wind Dir Waves Ship Positions

C Tractor 11

Owner: ALPHA MARINE SERVICES,LLC, Cut Off, LA. More information available from US FCC via Universal Licensing System and Coast Guard Vessel Documentation Center.

Last reported at 2017-Oct-18 13:42 UTC. Time now 2017-Oct-20 12:23 UTC.
Position N 32°42' W 117°11'.

Length 27 m; draft 5.1 m.

Type: Tug. MMSI: 366981910.

Date/timePositionNaut miles runAvg speedWind from/ knotsBaromVisibWave heightAir tempDewpointWater temp
2017-Oct-18 13:42N 32°42' W 117°11'1 2.3
2017-Oct-18 13:22N 32°42' W 117°10'  
2017-Oct-15 16:19N 32°41' W 117°08'0 0.0
2017-Oct-15 16:00N 32°41' W 117°08'0 0.0
2017-Oct-15 15:24N 32°41' W 117°08'0 0.0
2017-Oct-15 14:55N 32°41' W 117°08'0 0.0
2017-Oct-15 13:45N 32°41' W 117°08'0 0.0
2017-Oct-15 13:27N 32°41' W 117°08'0 0.0
2017-Oct-15 13:00N 32°41' W 117°08'0 0.0
2017-Oct-15 12:28N 32°41' W 117°08'0 0.0
2017-Oct-15 12:01N 32°41' W 117°08'0 0.0
2017-Oct-15 11:30N 32°41' W 117°08'0 0.0
2017-Oct-15 10:59N 32°41' W 117°08'0 0.0
2017-Oct-15 10:30N 32°41' W 117°08'0 0.0
2017-Oct-15 10:00N 32°41' W 117°08'0 0.0
2017-Oct-15 09:29N 32°41' W 117°08'0 0.0
2017-Oct-15 09:01N 32°41' W 117°08'0 0.0
2017-Oct-15 08:29N 32°41' W 117°08'0 0.0
2017-Oct-15 07:53N 32°41' W 117°08'0 0.0
2017-Oct-15 07:30N 32°41' W 117°08'0 0.0
2017-Oct-15 07:00N 32°41' W 117°08'0 0.0
2017-Oct-15 06:30N 32°41' W 117°08'0 0.0
2017-Oct-15 05:59N 32°41' W 117°08'0 0.0
2017-Oct-15 05:29N 32°41' W 117°08'0 0.0
2017-Oct-15 05:00N 32°41' W 117°08'0 0.0
2017-Oct-15 04:29N 32°41' W 117°08'0 0.0
2017-Oct-15 03:59N 32°41' W 117°08'0 0.0
2017-Oct-15 03:17N 32°41' W 117°08'0 0.0
2017-Oct-15 03:00N 32°41' W 117°08'0 0.0
2017-Oct-15 02:30N 32°41' W 117°08'0 0.0
2017-Oct-15 01:59N 32°41' W 117°08'0 0.0
2017-Oct-15 01:28N 32°41' W 117°08'0 0.0
2017-Oct-15 00:59N 32°41' W 117°08'0 0.0
2017-Oct-15 00:30N 32°41' W 117°08'0 0.0
2017-Oct-15 00:00N 32°41' W 117°08'0 0.0
2017-Oct-14 23:30N 32°41' W 117°08'0 0.0
2017-Oct-14 23:00N 32°41' W 117°08'0 0.0
2017-Oct-14 22:30N 32°41' W 117°08'0 0.0
2017-Oct-14 22:00N 32°41' W 117°08'0 0.0
2017-Oct-14 17:22N 32°41' W 117°08'0 0.0
2017-Oct-14 16:52N 32°41' W 117°08'0 0.0
2017-Oct-14 16:28N 32°41' W 117°08'0 0.0
2017-Oct-14 16:00N 32°41' W 117°08'0 0.0
2017-Oct-14 14:54N 32°41' W 117°08'0 0.0
2017-Oct-14 13:04N 32°41' W 117°08'0 0.0
2017-Oct-14 12:35N 32°41' W 117°08'0 0.0
2017-Oct-14 10:52N 32°41' W 117°08'0 0.0
2017-Oct-13 23:46N 32°41' W 117°08'0 0.0
2017-Oct-13 19:03N 32°41' W 117°08'0 0.0
2017-Oct-13 18:53N 32°41' W 117°08'0 0.0
2017-Oct-13 18:22N 32°41' W 117°08'4 1.8
2017-Oct-13 16:14N 32°43' W 117°12'2 8.0
2017-Oct-13 15:59N 32°42' W 117°14'1 1.0
2017-Oct-13 15:28N 32°41' W 117°14'1 1.5
2017-Oct-13 15:00N 32°42' W 117°14'5 2.5
2017-Oct-13 13:00N 32°41' W 117°08'0 0.0
2017-Oct-13 06:27N 32°41' W 117°08'0 0.0
2017-Oct-13 05:52N 32°41' W 117°08'0 0.0
2017-Oct-13 05:30N 32°41' W 117°08'0 0.0
2017-Oct-13 05:00N 32°41' W 117°08'0 0.0
2017-Oct-13 04:20N 32°41' W 117°08'0 0.0
2017-Oct-13 03:58N 32°41' W 117°08'0 0.0
2017-Oct-13 03:21N 32°41' W 117°08'0 0.0
2017-Oct-13 03:00N 32°41' W 117°08'0 0.0
2017-Oct-13 02:30N 32°41' W 117°08'0 0.0
2017-Oct-13 01:54N 32°41' W 117°08'0 0.0
2017-Oct-13 01:28N 32°41' W 117°08'0 0.0
2017-Oct-13 01:00N 32°41' W 117°08'0 0.0
2017-Oct-12 23:13N 32°41' W 117°08'0 0.0
2017-Oct-12 23:00N 32°41' W 117°08'0 0.0
2017-Oct-12 22:28N 32°41' W 117°08'0 0.0
2017-Oct-12 21:53N 32°41' W 117°08'3 0.4
2017-Oct-12 15:24N 32°42' W 117°11'1 1.8
2017-Oct-12 14:57N 32°43' W 117°11'3 2.2
2017-Oct-12 13:25N 32°41' W 117°08'0 0.0
2017-Oct-12 12:53N 32°41' W 117°08'0 0.0
2017-Oct-12 11:42N 32°41' W 117°08'0 0.0
2017-Oct-12 11:13N 32°41' W 117°08'4 0.1
2017-Oct-10 22:01N 32°43' W 117°13'0 6.0
2017-Oct-10 21:59N 32°43' W 117°13'0 0.2
2017-Oct-10 21:24N 32°43' W 117°13'5 8.5
2017-Oct-10 20:52N 32°41' W 117°08'0 0.3
2017-Oct-10 20:21N 32°41' W 117°08'0 0.0
2017-Oct-10 19:17N 32°41' W 117°08'0 0.0
2017-Oct-10 18:59N 32°41' W 117°08'0 0.0
2017-Oct-10 18:30N 32°41' W 117°08'0 0.0
2017-Oct-10 17:28N 32°41' W 117°08'0 0.0
2017-Oct-10 16:54N 32°41' W 117°08'0 0.0
2017-Oct-10 16:26N 32°41' W 117°08'1 2.2
2017-Oct-10 15:52N 32°40' W 117°07'1 3.7
2017-Oct-10 15:30N 32°41' W 117°08'0 0.0
2017-Oct-10 15:00N 32°41' W 117°08'0 0.3
2017-Oct-10 13:52N 32°41' W 117°08'0 1.2
2017-Oct-10 13:30N 32°41' W 117°08'0 0.0
2017-Oct-10 13:00N 32°41' W 117°08'0 0.0
2017-Oct-10 12:29N 32°41' W 117°08'0 0.0
2017-Oct-10 12:00N 32°41' W 117°08'0 0.0
2017-Oct-10 11:30N 32°41' W 117°08'0 0.0
2017-Oct-10 10:59N 32°41' W 117°08'0 0.0
2017-Oct-10 10:29N 32°41' W 117°08'0 0.0
2017-Oct-10 10:00N 32°41' W 117°08'0 0.0
2017-Oct-10 09:29N 32°41' W 117°08'0 0.1
2017-Oct-10 09:00N 32°41' W 117°08'0 0.0
2017-Oct-10 08:30N 32°41' W 117°08'0 0.0
2017-Oct-10 07:58N 32°41' W 117°08'0 0.0
2017-Oct-10 07:27N 32°41' W 117°08'0 0.0
2017-Oct-10 07:00N 32°41' W 117°08'0 0.0
2017-Oct-10 06:18N 32°41' W 117°08'0 0.0
2017-Oct-09 10:15N 32°41' W 117°08'4 0.5
2017-Oct-09 02:30N 32°44' W 117°12'0 0.1
2017-Oct-09 01:58N 32°44' W 117°12'0 0.3
2017-Oct-09 01:29N 32°44' W 117°12'0 0.7
2017-Oct-09 00:55N 32°44' W 117°11'0 0.0
2017-Oct-09 00:19N 32°44' W 117°11'4 0.4
2017-Oct-08 15:22N 32°41' W 117°08'0 0.0
2017-Oct-08 14:51N 32°41' W 117°08'0 0.0
2017-Oct-08 14:30N 32°41' W 117°08'0 0.0
2017-Oct-08 13:52N 32°41' W 117°08'  
Track history (hours):
 
Tides and Currents Weather Stations Pressure Air Temp Water Temp Dewpoint Dewpoint Depression Visibility Wind Speed Wind Dir Waves Ship Positions

C Tractor 11

Owner: ALPHA MARINE SERVICES,LLC, Cut Off, LA. More information available from US FCC via Universal Licensing System and Coast Guard Vessel Documentation Center.

Last reported at 2017-Oct-18 13:42 UTC. Time now 2017-Oct-20 12:23 UTC.
Position N 32°42' W 117°11'.

Length 27 m; draft 5.1 m.

Type: Tug. MMSI: 366981910.

Date/timePositionNaut miles runAvg speedWind from/ knotsBaromVisibWave heightAir tempDewpointWater temp
2017-Oct-18 13:42N 32°42' W 117°11'1 2.3
2017-Oct-18 13:22N 32°42' W 117°10'  
2017-Oct-15 16:19N 32°41' W 117°08'0 0.0
2017-Oct-15 16:00N 32°41' W 117°08'0 0.0
2017-Oct-15 15:24N 32°41' W 117°08'0 0.0
2017-Oct-15 14:55N 32°41' W 117°08'0 0.0
2017-Oct-15 13:45N 32°41' W 117°08'0 0.0
2017-Oct-15 13:27N 32°41' W 117°08'0 0.0
2017-Oct-15 13:00N 32°41' W 117°08'0 0.0
2017-Oct-15 12:28N 32°41' W 117°08'0 0.0
2017-Oct-15 12:01N 32°41' W 117°08'0 0.0
2017-Oct-15 11:30N 32°41' W 117°08'0 0.0
2017-Oct-15 10:59N 32°41' W 117°08'0 0.0
2017-Oct-15 10:30N 32°41' W 117°08'0 0.0
2017-Oct-15 10:00N 32°41' W 117°08'0 0.0
2017-Oct-15 09:29N 32°41' W 117°08'0 0.0
2017-Oct-15 09:01N 32°41' W 117°08'0 0.0
2017-Oct-15 08:29N 32°41' W 117°08'0 0.0
2017-Oct-15 07:53N 32°41' W 117°08'0 0.0
2017-Oct-15 07:30N 32°41' W 117°08'0 0.0
2017-Oct-15 07:00N 32°41' W 117°08'0 0.0
2017-Oct-15 06:30N 32°41' W 117°08'0 0.0
2017-Oct-15 05:59N 32°41' W 117°08'0 0.0
2017-Oct-15 05:29N 32°41' W 117°08'0 0.0
2017-Oct-15 05:00N 32°41' W 117°08'0 0.0
2017-Oct-15 04:29N 32°41' W 117°08'0 0.0
2017-Oct-15 03:59N 32°41' W 117°08'0 0.0
2017-Oct-15 03:17N 32°41' W 117°08'0 0.0
2017-Oct-15 03:00N 32°41' W 117°08'0 0.0
2017-Oct-15 02:30N 32°41' W 117°08'0 0.0
2017-Oct-15 01:59N 32°41' W 117°08'0 0.0
2017-Oct-15 01:28N 32°41' W 117°08'0 0.0
2017-Oct-15 00:59N 32°41' W 117°08'0 0.0
2017-Oct-15 00:30N 32°41' W 117°08'0 0.0
2017-Oct-15 00:00N 32°41' W 117°08'0 0.0
2017-Oct-14 23:30N 32°41' W 117°08'0 0.0
2017-Oct-14 23:00N 32°41' W 117°08'0 0.0
2017-Oct-14 22:30N 32°41' W 117°08'0 0.0
2017-Oct-14 22:00N 32°41' W 117°08'0 0.0
2017-Oct-14 17:22N 32°41' W 117°08'0 0.0
2017-Oct-14 16:52N 32°41' W 117°08'0 0.0
2017-Oct-14 16:28N 32°41' W 117°08'0 0.0
2017-Oct-14 16:00N 32°41' W 117°08'0 0.0
2017-Oct-14 14:54N 32°41' W 117°08'0 0.0
2017-Oct-14 13:04N 32°41' W 117°08'0 0.0
2017-Oct-14 12:35N 32°41' W 117°08'0 0.0
2017-Oct-14 10:52N 32°41' W 117°08'0 0.0
2017-Oct-13 23:46N 32°41' W 117°08'0 0.0
2017-Oct-13 19:03N 32°41' W 117°08'0 0.0
2017-Oct-13 18:53N 32°41' W 117°08'0 0.0
2017-Oct-13 18:22N 32°41' W 117°08'4 1.8
2017-Oct-13 16:14N 32°43' W 117°12'2 8.0
2017-Oct-13 15:59N 32°42' W 117°14'1 1.0
2017-Oct-13 15:28N 32°41' W 117°14'1 1.5
2017-Oct-13 15:00N 32°42' W 117°14'5 2.5
2017-Oct-13 13:00N 32°41' W 117°08'0 0.0
2017-Oct-13 06:27N 32°41' W 117°08'0 0.0
2017-Oct-13 05:52N 32°41' W 117°08'0 0.0
2017-Oct-13 05:30N 32°41' W 117°08'0 0.0
2017-Oct-13 05:00N 32°41' W 117°08'0 0.0
2017-Oct-13 04:20N 32°41' W 117°08'0 0.0
2017-Oct-13 03:58N 32°41' W 117°08'0 0.0
2017-Oct-13 03:21N 32°41' W 117°08'0 0.0
2017-Oct-13 03:00N 32°41' W 117°08'0 0.0
2017-Oct-13 02:30N 32°41' W 117°08'0 0.0
2017-Oct-13 01:54N 32°41' W 117°08'0 0.0
2017-Oct-13 01:28N 32°41' W 117°08'0 0.0
2017-Oct-13 01:00N 32°41' W 117°08'0 0.0
2017-Oct-12 23:13N 32°41' W 117°08'0 0.0
2017-Oct-12 23:00N 32°41' W 117°08'0 0.0
2017-Oct-12 22:28N 32°41' W 117°08'0 0.0
2017-Oct-12 21:53N 32°41' W 117°08'3 0.4
2017-Oct-12 15:24N 32°42' W 117°11'1 1.8
2017-Oct-12 14:57N 32°43' W 117°11'3 2.2
2017-Oct-12 13:25N 32°41' W 117°08'0 0.0
2017-Oct-12 12:53N 32°41' W 117°08'0 0.0
2017-Oct-12 11:42N 32°41' W 117°08'0 0.0
2017-Oct-12 11:13N 32°41' W 117°08'4 0.1
2017-Oct-10 22:01N 32°43' W 117°13'0 6.0
2017-Oct-10 21:59N 32°43' W 117°13'0 0.2
2017-Oct-10 21:24N 32°43' W 117°13'5 8.5
2017-Oct-10 20:52N 32°41' W 117°08'0 0.3
2017-Oct-10 20:21N 32°41' W 117°08'0 0.0
2017-Oct-10 19:17N 32°41' W 117°08'0 0.0
2017-Oct-10 18:59N 32°41' W 117°08'0 0.0
2017-Oct-10 18:30N 32°41' W 117°08'0 0.0
2017-Oct-10 17:28N 32°41' W 117°08'0 0.0
2017-Oct-10 16:54N 32°41' W 117°08'0 0.0
2017-Oct-10 16:26N 32°41' W 117°08'1 2.2
2017-Oct-10 15:52N 32°40' W 117°07'1 3.7
2017-Oct-10 15:30N 32°41' W 117°08'0 0.0
2017-Oct-10 15:00N 32°41' W 117°08'0 0.3
2017-Oct-10 13:52N 32°41' W 117°08'0 1.2
2017-Oct-10 13:30N 32°41' W 117°08'0 0.0
2017-Oct-10 13:00N 32°41' W 117°08'0 0.0
2017-Oct-10 12:29N 32°41' W 117°08'0 0.0
2017-Oct-10 12:00N 32°41' W 117°08'0 0.0
2017-Oct-10 11:30N 32°41' W 117°08'0 0.0
2017-Oct-10 10:59N 32°41' W 117°08'0 0.0
2017-Oct-10 10:29N 32°41' W 117°08'0 0.0
2017-Oct-10 10:00N 32°41' W 117°08'0 0.0
2017-Oct-10 09:29N 32°41' W 117°08'0 0.1
2017-Oct-10 09:00N 32°41' W 117°08'0 0.0
2017-Oct-10 08:30N 32°41' W 117°08'0 0.0
2017-Oct-10 07:58N 32°41' W 117°08'0 0.0
2017-Oct-10 07:27N 32°41' W 117°08'0 0.0
2017-Oct-10 07:00N 32°41' W 117°08'0 0.0
2017-Oct-10 06:18N 32°41' W 117°08'0 0.0
2017-Oct-09 10:15N 32°41' W 117°08'4 0.5
2017-Oct-09 02:30N 32°44' W 117°12'0 0.1
2017-Oct-09 01:58N 32°44' W 117°12'0 0.3
2017-Oct-09 01:29N 32°44' W 117°12'0 0.7
2017-Oct-09 00:55N 32°44' W 117°11'0 0.0
2017-Oct-09 00:19N 32°44' W 117°11'4 0.4
2017-Oct-08 15:22N 32°41' W 117°08'0 0.0
2017-Oct-08 14:51N 32°41' W 117°08'0 0.0
2017-Oct-08 14:30N 32°41' W 117°08'0 0.0
2017-Oct-08 13:52N 32°41' W 117°08'  

Dump ship's entire track history